Time;durP1;ratioP1;P1;durP2;ratioP2;P2;SDS_P1;SDS_P2;PMS_P1;PMS_P2;Temp;Humidity;BMP_temperature;BMP_pressure;BME280_temperature;BME280_humidity;BME280_pressure;Samples;Min_cycle;Max_cycle;Signal;HPM_P1;HPM_P2
2022/11/09 00:01:21;;;;;;;41.23;30.37;;;;;;;;;;4470649;32;20232;-88
2022/11/09 00:03:48;;;;;;;42.87;29.47;;;;;;;;;;4470458;32;20276;-87
2022/11/09 00:06:15;;;;;;;48.37;32.03;;;;;;;;;;4470481;32;20299;-87
2022/11/09 00:08:46;;;;;;;49.63;36.20;;;;;;;;;;4469310;32;20264;-88
2022/11/09 00:11:13;;;;;;;47.50;31.70;;;;;;;;;;4470652;32;20224;-87
2022/11/09 00:13:41;;;;;;;46.70;31.47;;;;;;;;;;4470373;32;20686;-87
2022/11/09 00:16:11;;;;;;;49.37;32.03;;;;;;;;;;4470524;32;20297;-88
2022/11/09 00:18:38;;;;;;;60.77;35.07;;;;;;;;;;4470760;32;20231;-87
2022/11/09 00:21:06;;;;;;;44.57;28.97;;;;;;;;;;4470192;32;20615;-87
2022/11/09 00:23:33;;;;;;;38.03;22.90;;;;;;;;;;4470163;32;20240;-89
2022/11/09 00:26:02;;;;;;;28.37;20.17;;;;;;;;;;4470163;32;20284;-87
2022/11/09 00:28:29;;;;;;;23.70;19.73;;;;;;;;;;4470593;32;20219;-87
2022/11/09 00:31:00;;;;;;;24.30;18.50;;;;;;;;;;4470087;32;20284;-87
2022/11/09 00:33:27;;;;;;;37.83;22.57;;;;;;;;;;4470373;32;20216;-87
2022/11/09 00:35:55;;;;;;;30.33;21.77;;;;;;;;;;4470348;32;20595;-87
2022/11/09 00:38:25;;;;;;;30.00;21.80;;;;;;;;;;4469960;32;20270;-87
2022/11/09 00:40:52;;;;;;;32.80;23.63;;;;;;;;;;4469089;32;20232;-87
2022/11/09 00:43:21;;;;;;;27.90;22.00;;;;;;;;;;4469068;32;20284;-87
2022/11/09 00:45:48;;;;;;;35.23;23.47;;;;;;;;;;4469800;32;20254;-89
2022/11/09 00:48:14;;;;;;;33.63;23.67;;;;;;;;;;4470309;32;20252;-87
2022/11/09 00:50:41;;;;;;;35.87;24.73;;;;;;;;;;4469571;32;20327;-88
2022/11/09 00:53:08;;;;;;;30.73;22.83;;;;;;;;;;4468844;32;20215;-89
2022/11/09 00:55:35;;;;;;;32.10;23.40;;;;;;;;;;4468464;32;20615;-86
2022/11/09 00:58:02;;;;;;;38.57;24.73;;;;;;;;;;4469588;32;20331;-89
2022/11/09 01:00:30;;;;;;;35.97;25.30;;;;;;;;;;4470208;32;20699;-89
2022/11/09 01:02:57;;;;;;;51.97;31.13;;;;;;;;;;4469586;32;20252;-86
2022/11/09 01:05:26;;;;;;;43.70;30.13;;;;;;;;;;4469713;32;20276;-86
2022/11/09 01:07:53;;;;;;;43.40;29.53;;;;;;;;;;4468527;32;20250;-87
2022/11/09 01:10:23;;;;;;;34.63;26.27;;;;;;;;;;4470021;32;20216;-86
2022/11/09 01:12:50;;;;;;;44.00;26.87;;;;;;;;;;4470006;32;20267;-86
2022/11/09 01:15:17;;;;;;;36.23;24.53;;;;;;;;;;4470105;32;20253;-86
2022/11/09 01:17:46;;;;;;;38.43;26.63;;;;;;;;;;4470118;32;20208;-86
2022/11/09 01:20:13;;;;;;;34.27;25.33;;;;;;;;;;4469461;32;20666;-86
2022/11/09 01:22:40;;;;;;;39.67;25.27;;;;;;;;;;4469380;32;20280;-88
2022/11/09 01:25:10;;;;;;;35.73;25.23;;;;;;;;;;4469210;32;20271;-88
2022/11/09 01:27:37;;;;;;;37.13;23.37;;;;;;;;;;4469611;32;20272;-86
2022/11/09 01:30:04;;;;;;;34.33;23.07;;;;;;;;;;4469230;32;20220;-86
2022/11/09 01:32:32;;;;;;;33.73;23.30;;;;;;;;;;4469319;32;20673;-86
2022/11/09 01:35:01;;;;;;;35.30;22.77;;;;;;;;;;4469205;32;20228;-86
2022/11/09 01:37:30;;;;;;;28.67;20.90;;;;;;;;;;4469505;32;20787;-89
2022/11/09 01:40:00;;;;;;;30.10;21.27;;;;;;;;;;4469493;32;20256;-88
2022/11/09 01:42:27;;;;;;;27.83;20.17;;;;;;;;;;4468932;32;20255;-86
2022/11/09 01:45:20;;;;;;;29.83;21.60;;;;;;;;;;4469423;32;20560;-89
2022/11/09 01:47:52;;;;;;;28.43;20.27;;;;;;;;;;4469374;32;20690;-87
2022/11/09 01:50:29;;;;;;;33.47;23.07;;;;;;;;;;4469022;32;20220;-89
2022/11/09 01:52:56;;;;;;;36.27;22.87;;;;;;;;;;4469132;32;20241;-88
2022/11/09 01:55:24;;;;;;;36.53;24.20;;;;;;;;;;4469343;32;20621;-89
2022/11/09 01:57:59;;;;;;;36.80;24.27;;;;;;;;;;4468781;32;20227;-88
2022/11/09 02:00:26;;;;;;;34.80;24.73;;;;;;;;;;4469102;32;20212;-89
2022/11/09 02:02:56;;;;;;;36.77;25.53;;;;;;;;;;4468809;32;20236;-89
2022/11/09 02:05:31;;;;;;;40.23;27.97;;;;;;;;;;4469143;32;20238;-88
2022/11/09 02:08:01;;;;;;;42.37;25.47;;;;;;;;;;4468801;32;20224;-88
2022/11/09 02:10:32;;;;;;;38.53;28.77;;;;;;;;;;4468882;32;20220;-88
2022/11/09 02:13:02;;;;;;;43.97;30.40;;;;;;;;;;4468896;32;20300;-88
2022/11/09 02:15:30;;;;;;;47.93;29.63;;;;;;;;;;4469143;32;20220;-88
2022/11/09 02:17:57;;;;;;;50.07;33.50;;;;;;;;;;4468520;32;20236;-88
2022/11/09 02:20:26;;;;;;;58.90;33.40;;;;;;;;;;4468853;32;20216;-88
2022/11/09 02:22:53;;;;;;;337.93;137.57;;;;;;;;;;4468867;32;20370;-88
2022/11/09 02:25:21;;;;;;;403.33;174.37;;;;;;;;;;4468451;32;20224;-89
2022/11/09 02:27:50;;;;;;;417.23;181.93;;;;;;;;;;4468800;32;20231;-89
2022/11/09 02:30:20;;;;;;;438.43;192.37;;;;;;;;;;4468387;32;20226;-88
2022/11/09 02:32:47;;;;;;;454.57;201.47;;;;;;;;;;4468840;32;20667;-89
2022/11/09 02:35:14;;;;;;;450.83;187.07;;;;;;;;;;4468570;32;20236;-88
2022/11/09 02:37:47;;;;;;;253.77;111.73;;;;;;;;;;4468346;32;20224;-88
2022/11/09 02:40:17;;;;;;;201.40;88.40;;;;;;;;;;4468389;32;20333;-89
2022/11/09 02:42:45;;;;;;;150.33;65.70;;;;;;;;;;4468331;32;20223;-89
2022/11/09 02:45:12;;;;;;;141.80;59.47;;;;;;;;;;4468377;32;20228;-89
2022/11/09 02:47:39;;;;;;;221.57;84.13;;;;;;;;;;4468265;32;20278;-89
2022/11/09 02:50:06;;;;;;;233.80;93.63;;;;;;;;;;4468022;32;20303;-88
2022/11/09 02:52:33;;;;;;;234.27;90.27;;;;;;;;;;4468563;32;20270;-88
2022/11/09 02:55:01;;;;;;;186.27;83.43;;;;;;;;;;4468065;32;20232;-88
2022/11/09 02:57:28;;;;;;;216.80;86.93;;;;;;;;;;4468143;32;20279;-88
2022/11/09 02:59:56;;;;;;;208.53;86.13;;;;;;;;;;4468474;32;20220;-89
2022/11/09 03:02:23;;;;;;;208.10;85.07;;;;;;;;;;4468067;32;20301;-89
2022/11/09 03:04:50;;;;;;;209.00;82.97;;;;;;;;;;4468011;32;20216;-88
2022/11/09 03:07:17;;;;;;;218.40;93.00;;;;;;;;;;4468164;32;20588;-89
2022/11/09 03:09:46;;;;;;;143.17;67.43;;;;;;;;;;4467231;32;20227;-89
2022/11/09 03:12:30;;;;;;;118.13;59.70;;;;;;;;;;4468052;32;20320;-88
2022/11/09 03:14:57;;;;;;;86.53;44.47;;;;;;;;;;4467372;32;20240;-88
2022/11/09 03:17:24;;;;;;;85.00;48.10;;;;;;;;;;4468006;32;20196;-89
2022/11/09 03:19:54;;;;;;;86.13;45.57;;;;;;;;;;4468378;32;20235;-88
2022/11/09 03:22:21;;;;;;;109.20;56.60;;;;;;;;;;4468534;32;20196;-88
2022/11/09 03:24:48;;;;;;;78.93;45.03;;;;;;;;;;4468293;32;20216;-89
2022/11/09 03:27:17;;;;;;;70.70;38.37;;;;;;;;;;4468377;32;20207;-89
2022/11/09 03:29:44;;;;;;;86.00;49.67;;;;;;;;;;4467933;32;20758;-88
2022/11/09 03:32:11;;;;;;;111.57;61.53;;;;;;;;;;4469652;32;20196;-89
2022/11/09 03:34:37;;;;;;;97.97;56.07;;;;;;;;;;4471354;32;20234;-89
2022/11/09 03:37:04;;;;;;;91.40;47.90;;;;;;;;;;4471357;32;20208;-89
2022/11/09 03:39:32;;;;;;;84.23;48.17;;;;;;;;;;4472491;32;20216;-89
2022/11/09 03:41:59;;;;;;;72.23;41.60;;;;;;;;;;4472107;32;20271;-88
2022/11/09 03:44:27;;;;;;;92.33;55.93;;;;;;;;;;4471406;32;20268;-88
2022/11/09 03:46:56;;;;;;;86.17;54.17;;;;;;;;;;4470993;32;20212;-87
2022/11/09 03:49:23;;;;;;;55.80;36.10;;;;;;;;;;4470151;32;20358;-87
2022/11/09 03:51:51;;;;;;;42.13;28.47;;;;;;;;;;4470580;32;20220;-88
2022/11/09 03:54:18;;;;;;;49.97;28.90;;;;;;;;;;4469550;32;20641;-88
2022/11/09 03:56:45;;;;;;;56.83;30.17;;;;;;;;;;4470941;32;20219;-90
2022/11/09 03:59:12;;;;;;;46.20;31.97;;;;;;;;;;4471079;32;20196;-89
2022/11/09 04:01:40;;;;;;;64.37;41.30;;;;;;;;;;4471081;32;20264;-87
2022/11/09 04:04:07;;;;;;;61.90;37.90;;;;;;;;;;4471303;32;20200;-87
2022/11/09 04:06:36;;;;;;;61.83;39.03;;;;;;;;;;4470498;32;20807;-88
2022/11/09 04:09:03;;;;;;;67.70;42.60;;;;;;;;;;4470568;32;20245;-87
2022/11/09 04:11:45;;;;;;;78.73;45.90;;;;;;;;;;4470488;32;20216;-87
2022/11/09 04:14:12;;;;;;;69.10;43.03;;;;;;;;;;4468546;32;20292;-88
2022/11/09 04:16:40;;;;;;;76.90;41.50;;;;;;;;;;4470579;32;20200;-88
2022/11/09 04:19:07;;;;;;;82.70;46.23;;;;;;;;;;4470373;32;20273;-89
2022/11/09 04:21:34;;;;;;;67.43;40.40;;;;;;;;;;4470670;32;20238;-88
2022/11/09 04:24:01;;;;;;;53.80;35.40;;;;;;;;;;4470628;32;20200;-88
2022/11/09 04:26:31;;;;;;;53.60;30.97;;;;;;;;;;4469964;32;20641;-87
2022/11/09 04:28:58;;;;;;;58.53;31.10;;;;;;;;;;4470845;32;20200;-87
2022/11/09 04:31:25;;;;;;;51.53;30.73;;;;;;;;;;4470538;32;20204;-88
2022/11/09 04:33:54;;;;;;;61.77;29.97;;;;;;;;;;4470138;32;20256;-88
2022/11/09 04:36:21;;;;;;;71.80;29.90;;;;;;;;;;4470053;32;20231;-87
2022/11/09 04:38:48;;;;;;;60.93;31.07;;;;;;;;;;4470035;32;20226;-88
2022/11/09 04:41:15;;;;;;;70.63;32.37;;;;;;;;;;4470366;32;20255;-87
2022/11/09 04:43:42;;;;;;;65.83;31.67;;;;;;;;;;4469662;32;20242;-88
2022/11/09 04:46:09;;;;;;;67.73;32.90;;;;;;;;;;4470160;32;20212;-87
2022/11/09 04:48:36;;;;;;;60.60;31.97;;;;;;;;;;4469778;32;20271;-87
2022/11/09 04:51:07;;;;;;;68.53;33.43;;;;;;;;;;4469925;32;20686;-89
2022/11/09 04:53:39;;;;;;;64.83;34.23;;;;;;;;;;4470159;32;20235;-89
2022/11/09 04:56:07;;;;;;;69.70;34.20;;;;;;;;;;4469900;32;20659;-87
2022/11/09 04:58:35;;;;;;;61.67;32.67;;;;;;;;;;4469819;32;20216;-87
2022/11/09 05:01:03;;;;;;;64.93;35.30;;;;;;;;;;4470022;32;20261;-87
2022/11/09 05:03:30;;;;;;;77.83;37.40;;;;;;;;;;4470889;32;20614;-89
2022/11/09 05:05:57;;;;;;;79.63;36.57;;;;;;;;;;4472118;32;20716;-89
2022/11/09 05:08:26;;;;;;;63.73;35.80;;;;;;;;;;4471364;32;20279;-90
2022/11/09 05:10:56;;;;;;;72.70;34.97;;;;;;;;;;4477966;32;20218;-87
2022/11/09 05:13:24;;;;;;;76.33;36.70;;;;;;;;;;4485154;32;20250;-89
2022/11/09 05:15:51;;;;;;;92.77;48.17;;;;;;;;;;4487436;32;20256;-88
2022/11/09 05:18:22;;;;;;;91.93;45.17;;;;;;;;;;4487084;32;20192;-87
2022/11/09 05:20:49;;;;;;;92.37;42.77;;;;;;;;;;4485590;32;20228;-87
2022/11/09 05:26:07;;;;;;;99.60;42.37;;;;;;;;;;4473553;32;20215;-87
2022/11/09 05:28:35;;;;;;;106.77;46.07;;;;;;;;;;4472013;32;20220;-87
2022/11/09 05:31:04;;;;;;;109.20;47.80;;;;;;;;;;4470679;32;20264;-87
2022/11/09 05:33:31;;;;;;;117.40;51.00;;;;;;;;;;4471231;32;20705;-90
2022/11/09 05:35:58;;;;;;;111.20;46.87;;;;;;;;;;4469913;32;20266;-87
2022/11/09 05:38:25;;;;;;;111.37;51.03;;;;;;;;;;4470074;32;20283;-87
2022/11/09 05:40:53;;;;;;;110.63;45.40;;;;;;;;;;4469474;32;20281;-87
2022/11/09 05:43:21;;;;;;;122.10;51.57;;;;;;;;;;4469289;32;20701;-88
2022/11/09 05:45:48;;;;;;;102.73;47.20;;;;;;;;;;4470037;32;20274;-87
2022/11/09 05:48:17;;;;;;;113.03;49.13;;;;;;;;;;4468056;32;20311;-87
2022/11/09 05:50:44;;;;;;;107.73;46.53;;;;;;;;;;4468678;32;20215;-87
2022/11/09 05:53:12;;;;;;;100.30;47.07;;;;;;;;;;4469343;32;20244;-89
2022/11/09 05:55:40;;;;;;;116.67;50.53;;;;;;;;;;4468054;32;20248;-89
2022/11/09 05:58:07;;;;;;;115.80;52.10;;;;;;;;;;4469476;32;20218;-89
2022/11/09 06:00:36;;;;;;;101.23;52.00;;;;;;;;;;4469385;32;20218;-89
2022/11/09 06:03:04;;;;;;;104.03;49.77;;;;;;;;;;4469010;32;20208;-88
2022/11/09 06:05:32;;;;;;;117.43;50.73;;;;;;;;;;4470821;32;20283;-90
2022/11/09 06:08:03;;;;;;;102.17;49.90;;;;;;;;;;4470735;32;20215;-89
2022/11/09 06:10:30;;;;;;;108.67;47.80;;;;;;;;;;4468202;32;20272;-89
2022/11/09 06:12:57;;;;;;;113.33;49.40;;;;;;;;;;4467967;32;20618;-88
2022/11/09 06:15:24;;;;;;;107.33;49.00;;;;;;;;;;4466786;32;20268;-89
2022/11/09 06:17:53;;;;;;;75.73;40.27;;;;;;;;;;4468094;32;20200;-89
2022/11/09 06:20:20;;;;;;;92.23;44.93;;;;;;;;;;4467779;32;20274;-88
2022/11/09 06:22:53;;;;;;;94.67;44.10;;;;;;;;;;4468278;32;20196;-88
2022/11/09 06:25:20;;;;;;;95.43;48.43;;;;;;;;;;4469395;32;20279;-89
2022/11/09 06:27:50;;;;;;;86.83;45.13;;;;;;;;;;4468291;32;20212;-88
2022/11/09 06:30:17;;;;;;;87.30;45.43;;;;;;;;;;4467424;32;20215;-88
2022/11/09 06:32:44;;;;;;;96.87;49.33;;;;;;;;;;4468285;32;20554;-89
2022/11/09 06:35:12;;;;;;;81.27;42.73;;;;;;;;;;4467673;32;20303;-88
2022/11/09 06:37:40;;;;;;;79.23;42.83;;;;;;;;;;4468561;32;20318;-88
2022/11/09 06:40:08;;;;;;;81.43;41.77;;;;;;;;;;4467774;32;20312;-88
2022/11/09 06:42:35;;;;;;;85.47;41.57;;;;;;;;;;4468061;32;20271;-87
2022/11/09 06:45:04;;;;;;;69.73;39.23;;;;;;;;;;4467753;32;20212;-88
2022/11/09 06:47:30;;;;;;;77.23;41.47;;;;;;;;;;4467763;32;20263;-86
2022/11/09 06:49:57;;;;;;;67.93;41.33;;;;;;;;;;4467807;32;20216;-87
2022/11/09 06:52:28;;;;;;;78.33;41.63;;;;;;;;;;4467755;32;20247;-89
2022/11/09 06:54:55;;;;;;;80.13;44.20;;;;;;;;;;4468075;32;20358;-89
2022/11/09 06:57:24;;;;;;;80.07;42.83;;;;;;;;;;4468031;32;20224;-87
2022/11/09 06:59:51;;;;;;;80.63;43.63;;;;;;;;;;4467531;32;20235;-86
2022/11/09 07:02:21;;;;;;;88.90;43.23;;;;;;;;;;4468329;32;20216;-87
2022/11/09 07:04:51;;;;;;;87.83;44.43;;;;;;;;;;4467505;32;20666;-87
2022/11/09 07:07:18;;;;;;;96.07;47.97;;;;;;;;;;4470678;32;20230;-88
2022/11/09 07:09:46;;;;;;;91.17;49.27;;;;;;;;;;4470701;32;20200;-88
2022/11/09 07:12:13;;;;;;;91.10;49.93;;;;;;;;;;4471185;32;20220;-89
2022/11/09 07:14:43;;;;;;;82.70;48.27;;;;;;;;;;4470690;32;20608;-87
2022/11/09 07:17:10;;;;;;;74.87;44.37;;;;;;;;;;4470274;32;20314;-88
2022/11/09 07:19:40;;;;;;;95.27;44.53;;;;;;;;;;4470869;32;20204;-87
2022/11/09 07:22:09;;;;;;;77.27;43.30;;;;;;;;;;4471106;32;20216;-88
2022/11/09 07:24:35;;;;;;;75.17;43.00;;;;;;;;;;4470438;32;20355;-88
2022/11/09 07:27:07;;;;;;;82.17;46.33;;;;;;;;;;4470136;32;20323;-88
2022/11/09 07:29:34;;;;;;;66.50;41.17;;;;;;;;;;4470593;32;20208;-88
2022/11/09 07:32:00;;;;;;;81.70;44.87;;;;;;;;;;4470819;32;20261;-88
2022/11/09 07:34:27;;;;;;;81.53;46.53;;;;;;;;;;4470486;32;20208;-87
2022/11/09 07:36:55;;;;;;;88.57;46.33;;;;;;;;;;4472710;32;20307;-89
2022/11/09 07:39:22;;;;;;;72.53;44.03;;;;;;;;;;4470974;32;20257;-87
2022/11/09 07:41:50;;;;;;;65.93;42.43;;;;;;;;;;4471985;32;20573;-87
2022/11/09 07:44:18;;;;;;;74.20;43.30;;;;;;;;;;4473613;32;20317;-87
2022/11/09 07:46:50;;;;;;;63.10;41.57;;;;;;;;;;4472739;32;20291;-87
2022/11/09 07:49:17;;;;;;;68.77;41.67;;;;;;;;;;4470768;32;20675;-87
2022/11/09 07:51:45;;;;;;;80.73;45.90;;;;;;;;;;4471119;32;20268;-87
2022/11/09 07:54:17;;;;;;;80.03;41.93;;;;;;;;;;4469639;32;20276;-88
2022/11/09 07:56:46;;;;;;;89.37;44.73;;;;;;;;;;4470482;32;20208;-87
2022/11/09 07:59:13;;;;;;;73.57;43.50;;;;;;;;;;4469779;32;20220;-88
2022/11/09 08:01:46;;;;;;;67.73;42.10;;;;;;;;;;4470196;32;20212;-88
2022/11/09 08:04:15;;;;;;;82.27;42.60;;;;;;;;;;4470530;32;20575;-88
2022/11/09 08:06:42;;;;;;;66.80;40.80;;;;;;;;;;4469824;32;20215;-88
2022/11/09 08:09:09;;;;;;;58.33;38.73;;;;;;;;;;4469985;32;20540;-88
2022/11/09 08:11:37;;;;;;;60.93;37.90;;;;;;;;;;4470089;32;20286;-88
2022/11/09 08:14:05;;;;;;;63.93;39.83;;;;;;;;;;4469864;32;20237;-88
2022/11/09 08:16:31;;;;;;;56.13;36.43;;;;;;;;;;4470337;32;20276;-89
2022/11/09 08:18:59;;;;;;;55.97;36.50;;;;;;;;;;4468986;32;20203;-88
2022/11/09 08:21:26;;;;;;;52.57;38.87;;;;;;;;;;4469479;32;20410;-89
2022/11/09 08:23:58;;;;;;;69.53;38.53;;;;;;;;;;4470231;32;20204;-88
2022/11/09 08:26:28;;;;;;;61.50;37.07;;;;;;;;;;4469412;32;20208;-89
2022/11/09 08:28:55;;;;;;;56.47;38.43;;;;;;;;;;4469757;32;20222;-89
2022/11/09 08:31:22;;;;;;;58.40;36.37;;;;;;;;;;4469639;32;20301;-89
2022/11/09 08:33:49;;;;;;;61.87;38.00;;;;;;;;;;4469564;32;20748;-89
2022/11/09 08:36:18;;;;;;;58.50;40.83;;;;;;;;;;4469593;32;20224;-90
2022/11/09 08:38:45;;;;;;;60.03;37.63;;;;;;;;;;4470092;32;20568;-90
2022/11/09 08:41:13;;;;;;;51.83;34.33;;;;;;;;;;4469748;32;20270;-90
2022/11/09 08:43:40;;;;;;;56.07;33.90;;;;;;;;;;4470004;32;20228;-89
2022/11/09 08:46:08;;;;;;;51.53;33.17;;;;;;;;;;4470041;32;20291;-89
2022/11/09 08:48:36;;;;;;;44.60;32.60;;;;;;;;;;4469039;32;20208;-88
2022/11/09 08:51:03;;;;;;;39.33;28.03;;;;;;;;;;4469266;32;20228;-89
2022/11/09 08:53:33;;;;;;;42.23;31.27;;;;;;;;;;4469657;32;20196;-89
2022/11/09 08:56:00;;;;;;;42.63;27.00;;;;;;;;;;4469305;32;20234;-90
2022/11/09 08:58:27;;;;;;;41.77;29.13;;;;;;;;;;4469727;32;20343;-89
2022/11/09 09:00:54;;;;;;;50.83;35.57;;;;;;;;;;4469702;32;20215;-89
2022/11/09 09:03:21;;;;;;;52.40;34.73;;;;;;;;;;4469280;32;20675;-89
2022/11/09 09:05:52;;;;;;;56.80;34.63;;;;;;;;;;4469181;32;20269;-90
2022/11/09 09:08:21;;;;;;;50.40;33.80;;;;;;;;;;4469366;32;20244;-90
2022/11/09 09:10:50;;;;;;;52.67;35.90;;;;;;;;;;4469724;32;20219;-87
2022/11/09 09:13:18;;;;;;;55.33;37.83;;;;;;;;;;4469252;32;20280;-87
2022/11/09 09:15:48;;;;;;;51.43;37.00;;;;;;;;;;4468917;32;20197;-88
2022/11/09 09:18:15;;;;;;;46.77;34.27;;;;;;;;;;4469592;32;20216;-87
2022/11/09 09:20:42;;;;;;;53.77;33.50;;;;;;;;;;4469218;32;20215;-87
2022/11/09 09:23:11;;;;;;;42.83;32.60;;;;;;;;;;4468669;32;20300;-87
2022/11/09 09:25:39;;;;;;;46.90;31.07;;;;;;;;;;4469012;32;20654;-88
2022/11/09 09:28:13;;;;;;;49.83;35.00;;;;;;;;;;4468970;32;20228;-88
2022/11/09 09:30:40;;;;;;;46.43;32.83;;;;;;;;;;4468360;32;20308;-87
2022/11/09 09:33:07;;;;;;;42.97;32.77;;;;;;;;;;4468575;32;20295;-87
2022/11/09 09:35:34;;;;;;;48.83;32.87;;;;;;;;;;4455282;32;20617;-88
2022/11/09 09:38:01;;;;;;;42.67;29.37;;;;;;;;;;4468812;32;20204;-87
2022/11/09 09:40:33;;;;;;;42.87;31.63;;;;;;;;;;4468737;32;20374;-87
2022/11/09 09:43:02;;;;;;;43.47;32.23;;;;;;;;;;4470175;32;20559;-87
2022/11/09 09:45:33;;;;;;;49.27;31.77;;;;;;;;;;4470752;32;20224;-89
2022/11/09 09:48:06;;;;;;;40.13;30.23;;;;;;;;;;4469171;32;20208;-88
2022/11/09 09:50:38;;;;;;;49.73;30.73;;;;;;;;;;4468287;32;20566;-88
2022/11/09 09:53:16;;;;;;;44.33;30.77;;;;;;;;;;4468958;32;20234;-88
2022/11/09 09:55:45;;;;;;;40.73;30.90;;;;;;;;;;4469471;32;20254;-88
2022/11/09 09:58:15;;;;;;;41.53;27.77;;;;;;;;;;4469467;32;20226;-88
2022/11/09 10:00:44;;;;;;;49.30;31.50;;;;;;;;;;4468957;32;20284;-88
2022/11/09 10:03:17;;;;;;;49.17;34.27;;;;;;;;;;4468160;32;20506;-88
2022/11/09 10:05:54;;;;;;;45.97;31.93;;;;;;;;;;4469936;32;20220;-88
2022/11/09 10:08:26;;;;;;;53.50;33.13;;;;;;;;;;4467951;32;20211;-89
2022/11/09 10:11:04;;;;;;;51.37;34.50;;;;;;;;;;4468772;32;20234;-87
2022/11/09 10:13:47;;;;;;;47.23;35.43;;;;;;;;;;4469651;32;20232;-87
2022/11/09 10:16:23;;;;;;;46.60;36.13;;;;;;;;;;4469477;32;20240;-89
2022/11/09 10:19:14;;;;;;;52.27;34.80;;;;;;;;;;4469767;32;20552;-87
2022/11/09 10:21:48;;;;;;;47.90;34.13;;;;;;;;;;4468978;32;20220;-86
2022/11/09 10:24:27;;;;;;;49.00;35.07;;;;;;;;;;4469206;32;20289;-87
2022/11/09 10:26:56;;;;;;;48.83;33.90;;;;;;;;;;4469046;32;20238;-88
2022/11/09 10:29:27;;;;;;;44.43;31.83;;;;;;;;;;4469368;32;20264;-87
2022/11/09 10:31:59;;;;;;;51.27;35.33;;;;;;;;;;4469692;32;20291;-86
2022/11/09 10:34:29;;;;;;;48.67;34.93;;;;;;;;;;4468334;32;20278;-87
2022/11/09 10:37:07;;;;;;;53.17;37.90;;;;;;;;;;4468414;32;20204;-88
2022/11/09 10:39:41;;;;;;;50.00;35.53;;;;;;;;;;4468784;32;20266;-88
2022/11/09 10:42:12;;;;;;;50.23;34.87;;;;;;;;;;4468889;32;20212;-88
2022/11/09 10:44:38;;;;;;;39.57;30.33;;;;;;;;;;4468572;32;20350;-88
2022/11/09 10:47:13;;;;;;;46.13;30.30;;;;;;;;;;4468891;32;20208;-87
2022/11/09 10:49:41;;;;;;;42.40;31.83;;;;;;;;;;4468402;32;20264;-88
2022/11/09 10:52:38;;;;;;;50.27;31.73;;;;;;;;;;4467984;32;20248;-88
2022/11/09 10:55:27;;;;;;;47.27;33.23;;;;;;;;;;4467329;32;20732;-89
2022/11/09 10:57:59;;;;;;;46.83;33.57;;;;;;;;;;4468235;32;20503;-88
2022/11/09 11:00:27;;;;;;;57.30;39.80;;;;;;;;;;4467864;32;20227;-88
2022/11/09 11:03:01;;;;;;;55.70;37.03;;;;;;;;;;4467589;32;20204;-87
2022/11/09 11:05:33;;;;;;;61.63;37.43;;;;;;;;;;4467071;32;20743;-87
2022/11/09 11:08:22;;;;;;;61.10;36.97;;;;;;;;;;4467345;32;20244;-89
2022/11/09 11:10:49;;;;;;;56.43;35.47;;;;;;;;;;4463187;32;20310;-89
2022/11/09 11:13:23;;;;;;;51.27;34.47;;;;;;;;;;4467588;32;20268;-88
2022/11/09 11:15:50;;;;;;;53.17;36.57;;;;;;;;;;4467514;32;20228;-87
2022/11/09 11:18:29;;;;;;;60.53;38.60;;;;;;;;;;4467286;32;20216;-87
2022/11/09 11:21:13;;;;;;;46.30;31.90;;;;;;;;;;4467716;32;20220;-87
2022/11/09 11:23:40;;;;;;;42.47;30.77;;;;;;;;;;4467446;32;20263;-87
2022/11/09 11:26:28;;;;;;;49.07;34.03;;;;;;;;;;4467437;32;20224;-89
2022/11/09 11:29:00;;;;;;;50.50;33.27;;;;;;;;;;4468152;32;20216;-89
2022/11/09 11:31:27;;;;;;;51.33;35.47;;;;;;;;;;4467778;32;20221;-88
2022/11/09 11:33:58;;;;;;;47.30;34.17;;;;;;;;;;4467876;32;20209;-87
2022/11/09 11:36:39;;;;;;;42.37;30.07;;;;;;;;;;4468131;32;20267;-87
2022/11/09 11:39:15;;;;;;;41.17;28.83;;;;;;;;;;4467636;32;20580;-86
2022/11/09 11:42:03;;;;;;;40.97;26.30;;;;;;;;;;4467717;32;20267;-87
2022/11/09 11:44:52;;;;;;;36.60;27.37;;;;;;;;;;4467571;32;20281;-87
2022/11/09 11:47:25;;;;;;;35.57;25.97;;;;;;;;;;4467376;32;20594;-87
2022/11/09 11:50:10;;;;;;;36.47;25.93;;;;;;;;;;4467730;32;20223;-87
2022/11/09 11:52:52;;;;;;;34.97;26.57;;;;;;;;;;4468260;32;20652;-87
2022/11/09 11:55:42;;;;;;;42.40;31.97;;;;;;;;;;4470938;32;20307;-88
2022/11/09 11:58:23;;;;;;;45.80;32.13;;;;;;;;;;4471135;32;20702;-87
2022/11/09 12:00:56;;;;;;;47.93;32.17;;;;;;;;;;4470956;32;20294;-88
2022/11/09 12:03:44;;;;;;;32.83;26.27;;;;;;;;;;4471202;32;20230;-87
2022/11/09 12:06:23;;;;;;;35.90;26.73;;;;;;;;;;4469284;32;20244;-88
2022/11/09 12:09:15;;;;;;;38.50;27.70;;;;;;;;;;4470755;32;20306;-87
2022/11/09 12:11:56;;;;;;;37.00;28.40;;;;;;;;;;4470882;32;20264;-88
2022/11/09 12:14:35;;;;;;;39.40;28.27;;;;;;;;;;4468223;32;20621;-87
2022/11/09 12:17:12;;;;;;;34.93;26.97;;;;;;;;;;4470974;32;20260;-87
2022/11/09 12:19:54;;;;;;;42.07;27.67;;;;;;;;;;4470361;32;20337;-87
2022/11/09 12:22:33;;;;;;;36.20;29.17;;;;;;;;;;4470950;32;20263;-87
2022/11/09 12:25:13;;;;;;;41.93;30.17;;;;;;;;;;4470159;32;20226;-88
2022/11/09 12:27:52;;;;;;;38.63;26.07;;;;;;;;;;4470806;32;20207;-88
2022/11/09 12:30:22;;;;;;;42.70;28.67;;;;;;;;;;4470093;32;20220;-87
2022/11/09 12:32:54;;;;;;;45.73;25.83;;;;;;;;;;4470749;32;20287;-88
2022/11/09 12:35:30;;;;;;;35.83;27.17;;;;;;;;;;4469313;32;20300;-88
2022/11/09 12:38:04;;;;;;;38.53;29.17;;;;;;;;;;4470737;32;20628;-85
2022/11/09 12:40:34;;;;;;;39.17;28.20;;;;;;;;;;4469888;32;20247;-86
2022/11/09 12:43:10;;;;;;;42.83;29.67;;;;;;;;;;4470511;32;20304;-86
2022/11/09 12:45:39;;;;;;;39.83;31.03;;;;;;;;;;4468998;32;20298;-88
2022/11/09 12:48:16;;;;;;;46.37;32.60;;;;;;;;;;4469784;32;20249;-87
2022/11/09 12:50:46;;;;;;;41.80;32.37;;;;;;;;;;4470173;32;20237;-86
2022/11/09 12:53:19;;;;;;;44.53;31.70;;;;;;;;;;4469877;32;20575;-88
2022/11/09 12:55:52;;;;;;;47.43;31.70;;;;;;;;;;4470015;32;20212;-88
2022/11/09 12:58:27;;;;;;;41.67;30.07;;;;;;;;;;4470273;32;20200;-87
2022/11/09 13:00:56;;;;;;;37.60;27.47;;;;;;;;;;4470290;32;20553;-88
2022/11/09 13:03:26;;;;;;;41.57;29.37;;;;;;;;;;4470889;32;20204;-87
2022/11/09 13:06:19;;;;;;;40.07;28.60;;;;;;;;;;4479684;32;20276;-87
2022/11/09 13:08:59;;;;;;;44.80;29.23;;;;;;;;;;4482561;32;20248;-87
2022/11/09 13:11:38;;;;;;;38.43;28.47;;;;;;;;;;4486112;32;20248;-86
2022/11/09 13:14:42;;;;;;;41.23;29.63;;;;;;;;;;4486731;32;20232;-87
2022/11/09 13:17:48;;;;;;;41.30;30.50;;;;;;;;;;4477102;32;20283;-88
2022/11/09 13:20:44;;;;;;;42.73;29.10;;;;;;;;;;4473512;32;20312;-87
2022/11/09 13:23:35;;;;;;;45.00;33.13;;;;;;;;;;4472332;32;20551;-88
2022/11/09 13:26:05;;;;;;;41.17;31.50;;;;;;;;;;4472133;32;20276;-87
2022/11/09 13:29:09;;;;;;;43.60;30.47;;;;;;;;;;4472066;32;20272;-87
2022/11/09 13:32:01;;;;;;;46.80;28.30;;;;;;;;;;4470780;32;20240;-88
2022/11/09 13:34:42;;;;;;;38.60;27.67;;;;;;;;;;4470530;32;20366;-86
2022/11/09 13:37:49;;;;;;;40.03;29.47;;;;;;;;;;4470925;32;20650;-86
2022/11/09 13:40:43;;;;;;;40.03;30.93;;;;;;;;;;4469388;32;20216;-86
2022/11/09 13:43:23;;;;;;;44.93;32.00;;;;;;;;;;4469906;32;20275;-86
2022/11/09 13:45:53;;;;;;;45.90;30.30;;;;;;;;;;4469394;32;20323;-88
2022/11/09 13:48:34;;;;;;;45.50;32.03;;;;;;;;;;4469598;32;20279;-89
2022/11/09 13:51:07;;;;;;;44.70;32.50;;;;;;;;;;4468934;32;20216;-86
2022/11/09 13:53:51;;;;;;;47.13;34.20;;;;;;;;;;4469544;32;20196;-86
2022/11/09 13:56:25;;;;;;;42.03;30.47;;;;;;;;;;4469088;32;20212;-88
2022/11/09 13:58:55;;;;;;;42.03;31.63;;;;;;;;;;4469824;32;20214;-86
2022/11/09 14:01:28;;;;;;;51.57;31.90;;;;;;;;;;4470244;32;20212;-86
2022/11/09 14:03:55;;;;;;;47.33;34.30;;;;;;;;;;4469888;32;20560;-87
2022/11/09 14:06:23;;;;;;;39.40;31.10;;;;;;;;;;4470366;32;20283;-87
2022/11/09 14:08:50;;;;;;;50.97;34.93;;;;;;;;;;4468965;32;20327;-86
2022/11/09 14:11:50;;;;;;;51.30;37.10;;;;;;;;;;4469822;32;20322;-89
2022/11/09 14:14:40;;;;;;;47.97;32.30;;;;;;;;;;4468577;32;20200;-87
2022/11/09 14:17:16;;;;;;;40.60;30.00;;;;;;;;;;4467992;32;20218;-86
2022/11/09 14:19:51;;;;;;;49.07;31.60;;;;;;;;;;4468915;32;20223;-86
2022/11/09 14:22:21;;;;;;;41.40;31.33;;;;;;;;;;4469346;32;20210;-89
2022/11/09 14:24:48;;;;;;;44.20;31.73;;;;;;;;;;4468615;32;20225;-86
2022/11/09 14:27:18;;;;;;;50.63;33.10;;;;;;;;;;4468847;32;20204;-88
2022/11/09 14:29:54;;;;;;;48.57;33.80;;;;;;;;;;4468953;32;20228;-89
2022/11/09 14:32:33;;;;;;;49.53;34.30;;;;;;;;;;4468998;32;20249;-89
2022/11/09 14:35:20;;;;;;;40.20;30.63;;;;;;;;;;4468771;32;20219;-88
2022/11/09 14:37:48;;;;;;;49.53;34.10;;;;;;;;;;4470057;32;20200;-89
2022/11/09 14:40:19;;;;;;;53.73;35.17;;;;;;;;;;4468998;32;20679;-89
2022/11/09 14:42:55;;;;;;;58.93;35.17;;;;;;;;;;4468979;32;20237;-87